首页
METAR-TAF:

METAR-TAF

机场 :

North Bay, 安大略省, 加拿大

纬度: 46-21N, 经度: 079-26W, 海拔: 358米

当前天气观测

该预报发布于1小时和13分钟前的07:01 UTC
风速9节,风向南转南东
温度 -4°C
湿度 86%
气压 1018 hPa
能見度: 14.5公里
阴天层高于1800英尺

METAR: CYYB 130701Z AUTO 16009KT 9SM OVC018 M04/M06 A3006 RMK SLP205

时间: 03:14 (08:14 UTC)

预报

该预报发布于30分钟前的07:44 UTC
预报有效从13日的 08点(UTC)到 13日的 20点(UTC)
风速10节,风向南转南东
能見度: 9.7公里
阴天层高于3000英尺
小雪
短暂存在
从 13日的 08点(UTC)到 13日的 16点(UTC)
能見度: 3.2公里
多云层高于800英尺
阴天层高于1500英尺
小雪, 轻雾
几率 40%
从 13日的 08点(UTC)到 13日的 16点(UTC)
能見度: 3.2公里
阴天层高于300英尺
小雪, (小) 冻, 毛毛雨, 轻雾
从 13日的 1600点(UTC)
风速12节,风向,有时为22节阵风
能見度: 10公里
阴天层高于1000英尺

TAF: CYYB 130744Z 1308/1320 16010KT 6SM -SN OVC030 TEMPO 1308/1316 2SM -SN BR BKN008 OVC015 PROB40 1308/1316 2SM -SN -FZDZ BR OVC003 FM131600 18012G22KT P6SM OVC010 RMK FCST BASED ON AUTO OBS. NXT FCST BY 131400Z

超过4000个机场的气象观测和天气预报(METAR&TAF报告)。

可查询的气象台以黄色和红色小点在地图上表示。

将鼠标移到小点上方,可查看气象台名称。

然后点击查看天气观测和预报。

如需切换地图:点击带黑十字的绿色按钮放大地图;点击带横线的绿色按钮缩小地图;或者点击绿色箭头查看邻近地区的地图。


METAR-TAF: